Portada
METAR-TAF:

METAR-TAF

Aeroports :

Base aèria Cameri

Novara, Itàlia

latitud: 45-31N, longitud: 008-40E, altitud: 178 m

Observació

L'informe es va fer fa 6 hores i 37 minuts, a les 17:55 UTC
Vent 3 kt del Oest
Temperatura 31°C
Humitat 63%
Pressió 1016 hPa
Visibilitat 10 km o més
sense núvols per sota de 1500 mi sense presència de cumulonimbus.

METAR: LIMN 181755Z 27003KT CAVOK 31/23 Q1016 RMK SKC VIS MIN 9999 BLU

Hora: 02:32 (00:32 UTC)

Pronòstic

L'informe es va fer fa 7 hores i 32 minuts, a les 17:00 UTC
Pronòstic vàlid del 18 a les 18 UTC al 19 a les 03 UTC
Vent 5 kt del Nord-Est
Visibilitat 10 km o més
sense núvols per sota de 1500 mi sense presència de cumulonimbus.

TAF: LIMN 181700Z 1818/1903 04005KT CAVOK

Observacions i pronòstics meteorològics de més de 4000 aeroports (METAR i TAF).

Les estacions disponibles són els punts grocs i vermells al mapa.

Posi el ratolí al punt desitjat per veure el nom de l'estació.

Feu clic per veure les observacions i els pronòstics meteorològics.

Per canviar el mapa: feu clic els botons verds amb una creu de color negre per apropar; al botó verd amb un guió per allunyar la imatge; o en les fletxes verdes per a mapes adjacents.


METAR-TAF: